Time;durP1;ratioP1;P1;durP2;ratioP2;P2;SDS_P1;SDS_P2;PMS_P1;PMS_P2;Temp;Humidity;BMP_temperature;BMP_pressure;BME280_temperature;BME280_humidity;BME280_pressure;Samples;Min_cycle;Max_cycle;Signal;HPM_P1;HPM_P2
2023/03/22 00:01:31;;;;;;;70.78;50.35;;;15.80;76.90;;;;;;4954167;28;93360;-75
2023/03/22 00:03:56;;;;;;;72.03;50.47;;;15.80;77.10;;;;;;4959759;28;91016;-73
2023/03/22 00:06:22;;;;;;;71.50;50.63;;;15.80;76.90;;;;;;4959700;28;91029;-75
2023/03/22 00:08:50;;;;;;;70.15;50.20;;;15.70;77.00;;;;;;4952573;28;89714;-74
2023/03/22 00:11:17;;;;;;;72.38;50.38;;;15.80;77.10;;;;;;4950105;28;92490;-75
2023/03/22 00:13:42;;;;;;;71.38;50.85;;;15.80;76.70;;;;;;4956791;28;90478;-76
2023/03/22 00:16:09;;;;;;;71.97;50.95;;;15.80;76.60;;;;;;4952844;28;90375;-75
2023/03/22 00:18:35;;;;;;;71.30;50.20;;;15.70;76.70;;;;;;4948281;28;96868;-75
2023/03/22 00:21:01;;;;;;;71.35;50.22;;;15.70;76.80;;;;;;4947730;28;89454;-75
2023/03/22 00:23:27;;;;;;;71.15;50.03;;;15.70;76.70;;;;;;4954568;28;91385;-76
2023/03/22 00:25:53;;;;;;;70.35;50.30;;;15.70;76.80;;;;;;4962766;28;90369;-74
2023/03/22 00:28:19;;;;;;;69.95;49.72;;;15.70;76.80;;;;;;4957073;28;92491;-75
2023/03/22 00:30:57;;;;;;;71.72;50.58;;;15.70;76.80;;;;;;4955930;28;91071;-76
2023/03/22 00:33:23;;;;;;;72.60;50.08;;;15.70;76.70;;;;;;4960275;28;92767;-76
2023/03/22 00:35:50;;;;;;;70.65;50.15;;;15.70;76.60;;;;;;4949701;28;90733;-72
2023/03/22 00:38:16;;;;;;;71.50;50.33;;;15.70;76.60;;;;;;4943909;28;96225;-75
2023/03/22 00:40:42;;;;;;;70.47;50.20;;;15.60;76.50;;;;;;4955464;28;91678;-76
2023/03/22 00:43:08;;;;;;;70.38;49.80;;;15.60;76.70;;;;;;4968617;28;90345;-74
2023/03/22 00:45:36;;;;;;;72.05;50.17;;;15.60;76.70;;;;;;4947605;28;89361;-73
2023/03/22 00:48:02;;;;;;;70.30;50.00;;;15.60;76.50;;;;;;4950284;28;96242;-74
2023/03/22 00:50:28;;;;;;;71.43;50.35;;;15.60;76.40;;;;;;4952079;28;90403;-73
2023/03/22 00:52:54;;;;;;;71.32;50.42;;;15.60;76.50;;;;;;4957497;28;93402;-73
2023/03/22 00:55:19;;;;;;;70.30;50.30;;;15.60;76.40;;;;;;4949626;28;94084;-77
2023/03/22 00:57:45;;;;;;;70.47;49.83;;;15.50;76.50;;;;;;4957856;28;91082;-75
2023/03/22 01:00:12;;;;;;;72.05;50.08;;;15.60;76.50;;;;;;4971413;28;90080;-73
2023/03/22 01:02:39;;;;;;;70.93;50.33;;;15.60;76.10;;;;;;4953759;28;90751;-76
2023/03/22 01:05:05;;;;;;;70.32;50.05;;;15.50;76.30;;;;;;4956366;28;91084;-75
2023/03/22 01:07:32;;;;;;;69.72;49.85;;;15.60;76.00;;;;;;4964274;28;89940;-76
2023/03/22 01:09:57;;;;;;;69.70;49.92;;;15.60;76.20;;;;;;4958887;28;89286;-75
2023/03/22 01:12:24;;;;;;;71.05;50.00;;;15.50;76.20;;;;;;4958037;28;92458;-76
2023/03/22 01:14:49;;;;;;;70.78;50.30;;;15.50;75.90;;;;;;4962868;28;91590;-75
2023/03/22 01:17:15;;;;;;;70.10;50.10;;;15.50;76.00;;;;;;4949420;28;90745;-74
2023/03/22 01:19:41;;;;;;;70.88;50.08;;;15.60;76.10;;;;;;4953978;28;91037;-74
2023/03/22 01:22:07;;;;;;;71.30;50.47;;;15.50;75.90;;;;;;4954256;28;93527;-74
2023/03/22 01:24:33;;;;;;;71.22;50.65;;;15.60;76.10;;;;;;4962796;28;91426;-76
2023/03/22 01:26:59;;;;;;;69.85;50.13;;;15.50;75.70;;;;;;4951592;28;91059;-74
2023/03/22 01:29:25;;;;;;;71.03;50.10;;;15.50;75.70;;;;;;4960151;28;91658;-74
2023/03/22 01:31:51;;;;;;;70.43;50.20;;;15.50;75.70;;;;;;4948346;28;90024;-77
2023/03/22 01:34:17;;;;;;;69.80;50.00;;;15.50;76.00;;;;;;4943089;28;94802;-74
2023/03/22 01:36:42;;;;;;;71.38;50.53;;;15.50;75.80;;;;;;4947088;28;90221;-73
2023/03/22 01:39:08;;;;;;;70.80;50.28;;;15.50;75.70;;;;;;4954827;28;90728;-76
2023/03/22 01:41:36;;;;;;;72.13;50.08;;;15.50;75.50;;;;;;4948137;28;93358;-75
2023/03/22 01:44:13;;;;;;;71.65;50.15;;;15.50;75.50;;;;;;4959343;28;92946;-75
2023/03/22 01:46:43;;;;;;;69.30;49.85;;;15.50;75.30;;;;;;4954442;28;90015;-71
2023/03/22 01:49:28;;;;;;;72.38;50.25;;;15.50;75.40;;;;;;4959204;28;91972;-75
2023/03/22 01:51:58;;;;;;;69.57;49.95;;;15.50;75.40;;;;;;4959004;28;91112;-73
2023/03/22 01:54:34;;;;;;;70.93;50.15;;;15.50;75.40;;;;;;4947473;28;92434;-74
2023/03/22 01:57:01;;;;;;;71.22;49.85;;;15.50;75.40;;;;;;4954292;28;90966;-75
2023/03/22 01:59:28;;;;;;;69.00;49.92;;;15.50;75.20;;;;;;4947238;28;93649;-73
2023/03/22 02:01:54;;;;;;;71.88;49.75;;;15.50;75.00;;;;;;4951323;28;92753;-76
2023/03/22 02:04:22;;;;;;;69.47;49.72;;;15.40;75.20;;;;;;4943428;28;92197;-75
2023/03/22 02:06:50;;;;;;;71.47;49.88;;;15.40;75.20;;;;;;4947233;28;91862;-74
2023/03/22 02:09:20;;;;;;;70.03;49.75;;;15.50;75.00;;;;;;4968877;28;89806;-74
2023/03/22 02:11:56;;;;;;;70.15;49.70;;;15.40;75.10;;;;;;4961686;28;91979;-76
2023/03/22 02:14:55;;;;;;;71.13;50.10;;;15.50;75.10;;;;;;4949817;28;90968;-75
2023/03/22 02:18:10;;;;;;;69.05;49.20;;;15.40;75.10;;;;;;4967051;28;89440;-76
2023/03/22 02:21:00;;;;;;;70.18;49.83;;;15.40;75.00;;;;;;4947875;28;91591;-74
2023/03/22 02:24:04;;;;;;;70.47;49.95;;;15.40;75.00;;;;;;4957765;28;90265;-75
2023/03/22 02:27:09;;;;;;;70.28;49.83;;;15.40;75.00;;;;;;4963249;28;89973;-75
2023/03/22 02:29:40;;;;;;;69.45;50.10;;;15.40;75.10;;;;;;4961208;28;90684;-76
2023/03/22 02:32:36;;;;;;;71.35;49.90;;;15.40;75.00;;;;;;4949562;28;90421;-74
2023/03/22 02:35:14;;;;;;;70.18;49.85;;;15.40;75.00;;;;;;4948001;28;93957;-76
2023/03/22 02:38:24;;;;;;;68.97;49.80;;;15.40;75.00;;;;;;4954073;28;90413;-76
2023/03/22 02:41:00;;;;;;;69.90;49.97;;;15.30;74.90;;;;;;4947937;28;91799;-74
2023/03/22 02:43:33;;;;;;;69.68;49.58;;;15.30;74.90;;;;;;4957269;28;91258;-76
2023/03/22 02:46:11;;;;;;;70.57;49.20;;;15.30;74.80;;;;;;4951304;28;91499;-75
2023/03/22 02:48:59;;;;;;;69.90;49.53;;;15.30;75.00;;;;;;4956090;28;96624;-75
2023/03/22 02:51:48;;;;;;;69.70;49.55;;;15.30;74.90;;;;;;4955616;28;90749;-75
2023/03/22 02:54:34;;;;;;;69.70;49.45;;;15.30;74.80;;;;;;4962968;28;89157;-76
2023/03/22 02:57:06;;;;;;;70.15;49.80;;;15.30;74.90;;;;;;4954321;28;93621;-73
2023/03/22 02:59:37;;;;;;;70.63;49.78;;;15.30;74.90;;;;;;4944649;28;95105;-75
2023/03/22 03:02:04;;;;;;;70.72;49.58;;;15.30;75.70;;;;;;4942015;28;90811;-76
2023/03/22 03:04:35;;;;;;;68.82;49.55;;;15.20;75.00;;;;;;4955585;28;90737;-75
2023/03/22 03:07:08;;;;;;;70.05;49.20;;;15.30;75.00;;;;;;4967739;28;96066;-74
2023/03/22 03:09:35;;;;;;;69.28;49.65;;;15.20;74.80;;;;;;4956043;28;89777;-76
2023/03/22 03:12:01;;;;;;;69.43;49.72;;;15.30;74.90;;;;;;4950517;28;91949;-76
2023/03/22 03:14:30;;;;;;;70.10;49.47;;;15.20;74.90;;;;;;4956455;28;93534;-76
2023/03/22 03:17:22;;;;;;;71.10;49.80;;;15.20;74.90;;;;;;4952530;28;89987;-73
2023/03/22 03:19:53;;;;;;;;;;;15.20;74.80;;;;;;4950781;28;90890;-76
2023/03/22 03:22:25;;;;;;;67.70;49.13;;;15.20;74.90;;;;;;4951690;28;89432;-76
2023/03/22 03:25:00;;;;;;;70.47;49.20;;;15.20;75.70;;;;;;4947401;28;91224;-75
2023/03/22 03:27:59;;;;;;;69.80;49.28;;;15.20;75.70;;;;;;4948534;28;92184;-77
2023/03/22 03:30:37;;;;;;;68.85;49.00;;;15.20;74.70;;;;;;4945552;28;90705;-75
2023/03/22 03:33:21;;;;;;;68.40;49.15;;;15.20;74.80;;;;;;4944770;28;89439;-74
2023/03/22 03:35:52;;;;;;;69.50;49.42;;;15.10;74.60;;;;;;4954941;28;96167;-74
2023/03/22 03:38:25;;;;;;;69.83;49.80;;;15.20;74.90;;;;;;4950751;28;90875;-73
2023/03/22 03:40:59;;;;;;;69.93;49.25;;;15.10;74.70;;;;;;4958102;28;92153;-75
2023/03/22 03:43:26;;;;;;;68.45;49.28;;;15.10;74.50;;;;;;4946141;28;95131;-74
2023/03/22 03:45:53;;;;;;;68.63;49.22;;;15.10;74.70;;;;;;4950285;28;93749;-76
2023/03/22 03:48:22;;;;;;;68.93;49.55;;;15.10;74.80;;;;;;4950020;28;90675;-75
2023/03/22 03:50:50;;;;;;;69.07;49.17;;;15.10;74.80;;;;;;4956015;28;93620;-73
2023/03/22 03:53:16;;;;;;;68.45;49.20;;;15.10;74.50;;;;;;4947927;28;92121;-76
2023/03/22 03:55:42;;;;;;;68.97;49.38;;;15.10;74.60;;;;;;4959025;28;89804;-76
2023/03/22 03:58:10;;;;;;;69.78;49.40;;;15.10;74.60;;;;;;4957832;28;91123;-72
2023/03/22 04:00:37;;;;;;;69.10;49.30;;;15.10;74.60;;;;;;4959226;28;91615;-75
2023/03/22 04:03:04;;;;;;;68.78;49.33;;;15.00;74.50;;;;;;4968676;28;92058;-75
2023/03/22 04:05:30;;;;;;;69.90;49.22;;;15.10;74.60;;;;;;4958494;28;92359;-74
2023/03/22 04:07:56;;;;;;;69.25;49.53;;;15.00;74.60;;;;;;4977334;28;89885;-75
2023/03/22 04:10:22;;;;;;;69.10;49.35;;;15.00;75.20;;;;;;4951008;28;91256;-77
2023/03/22 04:12:48;;;;;;;68.88;49.10;;;15.00;74.30;;;;;;4964424;28;91278;-76
2023/03/22 04:15:13;;;;;;;70.35;49.50;;;15.10;74.40;;;;;;4952678;28;89838;-76
2023/03/22 04:17:39;;;;;;;69.45;48.80;;;15.00;74.50;;;;;;4966630;28;91023;-77
2023/03/22 04:20:09;;;;;;;69.68;49.13;;;15.10;74.50;;;;;;4947283;28;90826;-76
2023/03/22 04:22:37;;;;;;;70.65;49.63;;;15.10;74.40;;;;;;4935284;28;91014;-73
2023/03/22 04:25:10;;;;;;;68.38;49.38;;;15.10;74.60;;;;;;4956909;28;90688;-72
2023/03/22 04:27:39;;;;;;;69.50;49.10;;;15.00;74.40;;;;;;4944161;28;91067;-72
2023/03/22 04:30:11;;;;;;;68.00;49.03;;;15.00;74.40;;;;;;4956981;28;91214;-73
2023/03/22 04:32:37;;;;;;;;;;;15.00;74.40;;;;;;4957207;28;89887;-73
2023/03/22 04:35:04;;;;;;;69.40;49.38;;;15.00;74.50;;;;;;4956076;28;91073;-75
2023/03/22 04:37:33;;;;;;;69.75;48.97;;;15.00;74.10;;;;;;4961864;28;94220;-72
2023/03/22 04:39:59;;;;;;;68.53;49.08;;;15.00;74.40;;;;;;4958271;28;92582;-74
2023/03/22 04:42:25;;;;;;;69.30;49.47;;;15.00;74.20;;;;;;4950968;28;92889;-74
2023/03/22 04:44:51;;;;;;;68.43;49.17;;;15.00;74.20;;;;;;4960815;28;90331;-73
2023/03/22 04:47:17;;;;;;;68.43;48.95;;;15.00;74.20;;;;;;4961295;28;90098;-75
2023/03/22 04:49:43;;;;;;;68.93;48.90;;;15.00;74.10;;;;;;4956363;28;90586;-73
2023/03/22 04:52:09;;;;;;;68.43;48.97;;;15.00;74.10;;;;;;4953739;28;90085;-74
2023/03/22 04:54:36;;;;;;;69.30;49.42;;;15.00;74.10;;;;;;4960974;28;90001;-74
2023/03/22 04:57:01;;;;;;;68.72;49.28;;;15.00;73.90;;;;;;4952306;28;90992;-74
2023/03/22 04:59:27;;;;;;;69.25;49.15;;;15.00;74.00;;;;;;4957698;28;90339;-77
2023/03/22 05:01:53;;;;;;;68.32;49.15;;;15.00;74.10;;;;;;4949245;28;89763;-74
2023/03/22 05:04:19;;;;;;;68.43;48.95;;;15.00;74.00;;;;;;4971436;28;89723;-76
2023/03/22 05:06:45;;;;;;;70.30;49.42;;;15.00;73.90;;;;;;4970395;28;90845;-77
2023/03/22 05:09:12;;;;;;;69.22;49.33;;;15.00;74.00;;;;;;4961031;28;90905;-76
2023/03/22 05:11:39;;;;;;;69.82;49.50;;;15.00;74.00;;;;;;4949296;28;90770;-72
2023/03/22 05:14:06;;;;;;;68.72;49.42;;;15.00;73.90;;;;;;4954684;28;90960;-75
2023/03/22 05:16:32;;;;;;;68.68;49.05;;;15.00;74.00;;;;;;4967437;28;91493;-74
2023/03/22 05:18:57;;;;;;;69.80;49.20;;;15.00;74.00;;;;;;4952003;28;90989;-74
2023/03/22 05:21:27;;;;;;;68.88;49.25;;;14.90;73.90;;;;;;4952036;28;90985;-73
2023/03/22 05:23:55;;;;;;;69.10;49.22;;;15.00;73.80;;;;;;4960634;28;90409;-75
2023/03/22 05:26:23;;;;;;;68.68;49.13;;;14.90;73.90;;;;;;4946815;28;89922;-75
2023/03/22 05:28:50;;;;;;;68.72;49.05;;;14.90;74.10;;;;;;4955138;28;90405;-75
2023/03/22 05:31:16;;;;;;;72.05;49.50;;;14.90;74.00;;;;;;4952851;28;91894;-75
2023/03/22 05:33:42;;;;;;;68.80;49.08;;;14.90;73.90;;;;;;4962971;28;90747;-76
2023/03/22 05:36:10;;;;;;;68.63;49.03;;;14.90;73.90;;;;;;4949777;28;90094;-74
2023/03/22 05:38:36;;;;;;;69.22;49.35;;;14.90;73.90;;;;;;4955769;28;92565;-75
2023/03/22 05:41:02;;;;;;;69.32;49.40;;;15.00;73.90;;;;;;4958936;28;90672;-74
2023/03/22 05:43:28;;;;;;;67.85;48.80;;;15.00;73.90;;;;;;4955305;28;90000;-72
2023/03/22 05:45:53;;;;;;;68.38;49.40;;;15.00;73.70;;;;;;4956320;28;90999;-73
2023/03/22 05:48:19;;;;;;;68.40;49.03;;;14.90;73.70;;;;;;4955598;28;89666;-74
2023/03/22 05:50:45;;;;;;;70.53;49.33;;;14.90;73.70;;;;;;4965568;28;89940;-74
2023/03/22 05:53:11;;;;;;;69.85;49.03;;;14.90;73.70;;;;;;4951795;28;90235;-72
2023/03/22 05:55:37;;;;;;;69.35;49.08;;;14.90;73.90;;;;;;4961307;28;91760;-73
2023/03/22 05:58:03;;;;;;;68.53;49.08;;;14.90;73.90;;;;;;4960525;28;89923;-73
2023/03/22 06:00:30;;;;;;;69.50;49.25;;;14.90;73.90;;;;;;4955239;28;91002;-70
2023/03/22 06:03:02;;;;;;;70.97;49.38;;;14.90;73.90;;;;;;4962384;28;92239;-72
2023/03/22 06:05:29;;;;;;;69.15;49.10;;;14.90;73.70;;;;;;4955074;28;92354;-74
2023/03/22 06:07:55;;;;;;;68.93;48.95;;;14.90;73.90;;;;;;4952127;28;89784;-68
2023/03/22 06:10:23;;;;;;;69.70;48.92;;;14.90;73.90;;;;;;4956757;28;89582;-74
2023/03/22 06:12:49;;;;;;;70.00;49.15;;;15.00;73.80;;;;;;4957221;28;88643;-73
2023/03/22 06:15:15;;;;;;;70.55;48.75;;;14.90;73.70;;;;;;4953120;28;91955;-73
2023/03/22 06:17:41;;;;;;;69.03;48.65;;;15.00;73.90;;;;;;4963668;28;89390;-73
2023/03/22 06:20:09;;;;;;;70.03;49.45;;;14.90;73.90;;;;;;4953823;28;91017;-75
2023/03/22 06:22:35;;;;;;;68.97;49.03;;;14.90;74.10;;;;;;4953931;28;91340;-75
2023/03/22 06:25:01;;;;;;;72.50;49.17;;;15.00;74.00;;;;;;4961151;28;90861;-71
2023/03/22 06:27:27;;;;;;;70.22;49.50;;;15.00;73.90;;;;;;4961261;28;90616;-74
2023/03/22 06:29:53;;;;;;;71.40;49.28;;;15.00;74.00;;;;;;4951825;28;90030;-73
2023/03/22 06:32:22;;;;;;;69.80;49.15;;;15.00;73.80;;;;;;4967283;28;90876;-73
2023/03/22 06:34:57;;;;;;;70.05;49.30;;;15.00;73.90;;;;;;4965445;28;90504;-72
2023/03/22 06:37:23;;;;;;;68.40;48.95;;;15.00;73.80;;;;;;4959186;28;89432;-73
2023/03/22 06:39:50;;;;;;;69.18;49.28;;;15.00;74.00;;;;;;4959020;28;90899;-75
2023/03/22 06:42:16;;;;;;;72.50;49.42;;;15.00;73.90;;;;;;4959102;28;93788;-71
2023/03/22 06:44:43;;;;;;;69.97;49.22;;;15.10;73.70;;;;;;4965561;28;90280;-73
2023/03/22 06:47:09;;;;;;;72.18;49.70;;;15.10;73.70;;;;;;4954817;28;89945;-74
2023/03/22 06:49:35;;;;;;;70.90;49.38;;;15.00;73.70;;;;;;4962749;28;89431;-74
2023/03/22 06:52:01;;;;;;;70.65;49.53;;;15.00;73.60;;;;;;4961161;28;90351;-72
2023/03/22 06:54:27;;;;;;;70.03;49.25;;;15.10;73.70;;;;;;4962573;28;89994;-74
2023/03/22 06:56:52;;;;;;;69.95;49.13;;;15.00;73.50;;;;;;4955818;28;90341;-73
2023/03/22 06:59:18;;;;;;;71.10;49.45;;;15.00;73.40;;;;;;4968192;28;89777;-71
2023/03/22 07:01:44;;;;;;;69.90;49.35;;;15.00;73.50;;;;;;4951695;28;88564;-73
2023/03/22 07:04:09;;;;;;;72.55;49.22;;;15.10;73.40;;;;;;4969299;28;90465;-73
2023/03/22 07:06:35;;;;;;;69.45;49.55;;;15.10;73.20;;;;;;4955667;28;89499;-72
2023/03/22 07:09:01;;;;;;;69.70;49.00;;;15.10;73.20;;;;;;4956747;28;95513;-74
2023/03/22 07:11:27;;;;;;;72.43;49.55;;;15.10;73.00;;;;;;4965175;28;89611;-73
2023/03/22 07:13:53;;;;;;;70.75;49.47;;;15.10;72.90;;;;;;4958012;28;89892;-72
2023/03/22 07:16:20;;;;;;;70.38;49.70;;;15.20;73.00;;;;;;4962519;28;90419;-74
2023/03/22 07:18:47;;;;;;;69.32;49.20;;;15.20;72.80;;;;;;4971895;28;89451;-72
2023/03/22 07:21:13;;;;;;;71.03;49.05;;;15.20;72.80;;;;;;4970282;28;91434;-73
2023/03/22 07:23:38;;;;;;;69.03;49.05;;;15.20;72.70;;;;;;4967076;28;90296;-72
2023/03/22 07:26:05;;;;;;;69.82;49.17;;;15.10;72.60;;;;;;4961897;28;89874;-72
2023/03/22 07:28:30;;;;;;;71.32;49.28;;;15.10;72.60;;;;;;4969400;28;90511;-72
2023/03/22 07:31:04;;;;;;;70.25;49.58;;;15.20;72.70;;;;;;4957331;28;89205;-73
2023/03/22 07:33:30;;;;;;;71.18;49.88;;;15.20;72.40;;;;;;4960257;28;90237;-75
2023/03/22 07:35:56;;;;;;;72.93;49.80;;;15.30;72.40;;;;;;4971559;28;90475;-75
2023/03/22 07:38:21;;;;;;;72.88;49.95;;;15.40;72.80;;;;;;4986807;28;89214;-74
2023/03/22 07:40:49;;;;;;;72.68;49.92;;;15.50;72.60;;;;;;4962263;28;89650;-75
2023/03/22 07:43:15;;;;;;;71.57;49.85;;;15.60;72.50;;;;;;4966259;28;94617;-74
2023/03/22 07:45:40;;;;;;;70.93;49.78;;;15.60;72.50;;;;;;4975287;28;90038;-75
2023/03/22 07:48:10;;;;;;;71.43;49.63;;;15.60;72.30;;;;;;4980559;28;89733;-75
2023/03/22 07:50:35;;;;;;;73.32;49.97;;;15.70;71.50;;;;;;4963102;28;88882;-72
2023/03/22 07:53:02;;;;;;;71.65;49.60;;;15.70;71.40;;;;;;4964438;28;90778;-74
2023/03/22 07:55:28;;;;;;;70.53;49.55;;;15.70;71.50;;;;;;4965944;28;90010;-72
2023/03/22 07:57:55;;;;;;;71.97;49.85;;;15.80;71.10;;;;;;4987096;28;91094;-75
2023/03/22 08:00:21;;;;;;;72.43;49.67;;;15.80;71.80;;;;;;4978584;28;89061;-76
2023/03/22 08:02:47;;;;;;;71.60;49.83;;;15.80;71.80;;;;;;4968846;28;91148;-76
2023/03/22 08:05:13;;;;;;;71.88;50.13;;;15.80;72.10;;;;;;4980584;28;90718;-73
2023/03/22 08:07:39;;;;;;;72.15;50.08;;;15.90;72.60;;;;;;4958671;28;89806;-76
2023/03/22 08:10:06;;;;;;;71.75;50.08;;;15.90;72.30;;;;;;4967046;28;93923;-76
2023/03/22 08:12:32;;;;;;;71.45;49.75;;;15.90;72.30;;;;;;4981717;28;89764;-75
2023/03/22 08:14:58;;;;;;;69.80;49.78;;;15.90;72.60;;;;;;4981224;28;89799;-76
2023/03/22 08:17:24;;;;;;;72.00;50.28;;;16.00;72.70;;;;;;4975381;28;89586;-75
2023/03/22 08:19:53;;;;;;;73.30;50.03;;;16.00;73.00;;;;;;4957770;28;89559;-77
2023/03/22 08:22:23;;;;;;;73.10;49.92;;;16.00;72.90;;;;;;4959193;28;93002;-72
2023/03/22 08:24:50;;;;;;;75.68;49.85;;;16.10;72.80;;;;;;4965102;28;91664;-76
2023/03/22 08:27:17;;;;;;;71.25;49.92;;;16.00;72.60;;;;;;4980437;28;89526;-74
2023/03/22 08:29:43;;;;;;;72.20;50.20;;;16.10;72.50;;;;;;4968539;28;89420;-75
2023/03/22 08:32:09;;;;;;;74.15;49.90;;;16.20;72.30;;;;;;4956885;28;91852;-76
2023/03/22 08:34:39;;;;;;;75.57;50.10;;;16.20;72.10;;;;;;4978282;28;89781;-79
2023/03/22 08:37:06;;;;;;;72.50;49.90;;;16.20;72.10;;;;;;4987340;28;89172;-75
2023/03/22 08:39:32;;;;;;;72.63;50.00;;;16.30;72.20;;;;;;4965850;28;89424;-78
2023/03/22 08:41:58;;;;;;;74.80;50.05;;;16.20;72.30;;;;;;4966788;28;89493;-75
2023/03/22 08:44:24;;;;;;;74.15;50.15;;;16.30;72.00;;;;;;4982768;28;89042;-74
2023/03/22 08:46:50;;;;;;;75.97;50.17;;;16.30;72.20;;;;;;4976330;28;90095;-78
2023/03/22 08:49:16;;;;;;;75.50;50.63;;;16.30;72.20;;;;;;4973918;28;93841;-76
2023/03/22 08:51:42;;;;;;;73.07;50.05;;;16.30;71.60;;;;;;4979309;28;90832;-77
2023/03/22 08:54:08;;;;;;;73.97;50.38;;;16.30;71.90;;;;;;4991464;28;89183;-76
2023/03/22 08:56:36;;;;;;;74.15;50.08;;;16.30;72.20;;;;;;4952191;28;89206;-77
2023/03/22 08:59:07;;;;;;;72.00;49.90;;;16.40;72.00;;;;;;4971463;28;90828;-75
2023/03/22 09:01:33;;;;;;;75.78;50.08;;;16.40;71.90;;;;;;4960237;28;92231;-76
2023/03/22 09:03:59;;;;;;;73.07;50.53;;;16.50;71.50;;;;;;4968416;28;89568;-76
2023/03/22 09:06:25;;;;;;;73.25;50.45;;;16.40;71.40;;;;;;4949041;28;91384;-75
2023/03/22 09:08:52;;;;;;;74.43;50.92;;;16.30;71.10;;;;;;4958450;28;89800;-74
2023/03/22 09:11:18;;;;;;;74.65;50.20;;;16.40;71.70;;;;;;4954116;28;90864;-75
2023/03/22 09:13:44;;;;;;;76.07;50.40;;;16.40;72.90;;;;;;4961711;28;90260;-74
2023/03/22 09:16:10;;;;;;;77.03;50.47;;;16.50;73.50;;;;;;4954998;28;89900;-72
2023/03/22 09:18:37;;;;;;;75.07;50.72;;;16.50;73.70;;;;;;4966460;28;89960;-74
2023/03/22 09:21:04;;;;;;;75.03;50.60;;;16.60;74.00;;;;;;4952921;28;92455;-75
2023/03/22 09:23:31;;;;;;;73.13;50.38;;;16.60;74.20;;;;;;4967230;28;93035;-74
2023/03/22 09:26:00;;;;;;;76.15;51.00;;;16.70;74.30;;;;;;4946896;28;91515;-76
2023/03/22 09:28:26;;;;;;;73.95;50.53;;;16.70;74.40;;;;;;4954640;28;89882;-74
2023/03/22 09:30:52;;;;;;;75.15;50.58;;;16.70;74.50;;;;;;4964781;28;90885;-73
2023/03/22 09:33:18;;;;;;;73.20;50.15;;;16.80;74.70;;;;;;4972175;28;90825;-75
2023/03/22 09:35:43;;;;;;;76.43;50.33;;;16.80;74.80;;;;;;4968456;28;91185;-78
2023/03/22 09:38:11;;;;;;;76.35;50.80;;;16.80;74.90;;;;;;4967483;28;89870;-79
2023/03/22 09:40:44;;;;;;;74.78;50.78;;;16.80;74.90;;;;;;4963557;28;89669;-73
2023/03/22 09:43:14;;;;;;;73.50;50.38;;;16.80;75.10;;;;;;4962581;28;89942;-76
2023/03/22 09:45:47;;;;;;;74.50;50.47;;;16.80;75.20;;;;;;4961471;28;91614;-77
2023/03/22 09:48:35;;;;;;;75.15;50.72;;;16.80;74.30;;;;;;4967244;28;89332;-79
2023/03/22 09:51:04;;;;;;;74.93;50.42;;;16.80;73.80;;;;;;4946875;28;93534;-79
2023/03/22 09:53:31;;;;;;;75.45;50.65;;;16.80;73.40;;;;;;4959988;28;90690;-75
2023/03/22 09:56:15;;;;;;;78.13;50.75;;;16.80;73.70;;;;;;4969147;28;89511;-75
2023/03/22 09:58:53;;;;;;;76.22;50.88;;;16.80;73.70;;;;;;4949288;28;91221;-73
2023/03/22 10:01:50;;;;;;;74.47;50.63;;;16.80;73.80;;;;;;4963982;28;90594;-72
2023/03/22 10:04:28;;;;;;;75.93;50.70;;;16.90;73.90;;;;;;4952486;28;90271;-74
2023/03/22 10:07:17;;;;;;;74.03;50.28;;;16.90;72.80;;;;;;4952428;28;91025;-77
2023/03/22 10:10:04;;;;;;;78.15;50.85;;;16.80;73.30;;;;;;4961894;28;90089;-73
2023/03/22 10:12:34;;;;;;;77.22;50.47;;;16.90;72.90;;;;;;4952317;28;90750;-75
2023/03/22 10:15:14;;;;;;;74.55;50.58;;;16.90;72.00;;;;;;4961148;28;91094;-77
2023/03/22 10:17:44;;;;;;;77.05;51.00;;;16.90;71.90;;;;;;4959547;28;89798;-76
2023/03/22 10:20:25;;;;;;;77.20;50.97;;;16.80;72.80;;;;;;4948391;28;94616;-76
2023/03/22 10:22:52;;;;;;;;;;;16.80;73.10;;;;;;4950985;28;89411;-77
2023/03/22 10:25:22;;;;;;;75.13;50.72;;;16.80;74.30;;;;;;4965304;28;89088;-77
2023/03/22 10:27:50;;;;;;;73.47;50.27;;;16.80;73.80;;;;;;4962594;28;91096;-78
2023/03/22 10:30:22;;;;;;;74.85;50.75;;;16.90;74.20;;;;;;4953637;28;91022;-74
2023/03/22 10:33:01;;;;;;;77.43;50.53;;;16.90;74.40;;;;;;4958824;28;90429;-75
2023/03/22 10:35:29;;;;;;;76.03;50.75;;;16.90;74.80;;;;;;4969947;28;90968;-74
2023/03/22 10:37:59;;;;;;;75.95;50.72;;;16.90;75.10;;;;;;4950727;28;90361;-77
2023/03/22 10:40:34;;;;;;;75.43;50.55;;;16.90;75.20;;;;;;4961965;28;89248;-74
2023/03/22 10:43:22;;;;;;;83.35;50.90;;;16.90;75.20;;;;;;4964519;28;93138;-74
2023/03/22 10:45:51;;;;;;;75.85;50.88;;;17.00;75.10;;;;;;4954168;28;89520;-76
2023/03/22 10:48:27;;;;;;;75.10;50.53;;;16.90;74.50;;;;;;4951312;28;91102;-75
2023/03/22 10:50:54;;;;;;;75.07;50.42;;;16.90;74.00;;;;;;4949090;28;90723;-75
2023/03/22 10:53:35;;;;;;;79.03;50.60;;;16.90;73.30;;;;;;4955915;28;92654;-75
2023/03/22 10:56:02;;;;;;;74.22;50.58;;;16.90;72.80;;;;;;4959632;28;89720;-72
2023/03/22 10:58:30;;;;;;;76.03;50.35;;;16.90;72.20;;;;;;4952934;28;91205;-73
2023/03/22 11:00:58;;;;;;;75.45;50.25;;;16.90;71.80;;;;;;4972431;28;91605;-74
2023/03/22 11:03:30;;;;;;;73.93;50.10;;;17.00;71.30;;;;;;4951006;28;91036;-74
2023/03/22 11:06:16;;;;;;;74.28;50.78;;;17.00;70.60;;;;;;4953000;28;90232;-74
2023/03/22 11:08:45;;;;;;;75.28;50.97;;;17.00;70.50;;;;;;4966696;28;91450;-74
2023/03/22 11:11:24;;;;;;;75.30;50.55;;;16.90;70.30;;;;;;4951928;28;89888;-76
2023/03/22 11:13:54;;;;;;;76.68;50.70;;;17.00;70.00;;;;;;4949698;28;92980;-74
2023/03/22 11:16:19;;;;;;;76.90;50.97;;;16.90;69.90;;;;;;4946939;28;93023;-75
2023/03/22 11:18:45;;;;;;;74.05;50.50;;;16.90;69.60;;;;;;4958716;28;91461;-77
2023/03/22 11:21:14;;;;;;;73.90;50.85;;;16.90;69.50;;;;;;4967760;28;89814;-76
2023/03/22 11:23:49;;;;;;;75.60;50.63;;;16.90;70.40;;;;;;4950844;28;91254;-78
2023/03/22 11:26:25;;;;;;;73.65;50.45;;;16.90;70.80;;;;;;4945639;28;90647;-73
2023/03/22 11:28:51;;;;;;;76.95;50.63;;;16.90;71.80;;;;;;4950353;28;91224;-75
2023/03/22 11:31:19;;;;;;;74.65;50.63;;;17.00;71.40;;;;;;4964318;28;91488;-77
2023/03/22 11:34:01;;;;;;;73.90;50.72;;;17.00;71.40;;;;;;4959494;28;89596;-74
2023/03/22 11:36:27;;;;;;;;;;;17.10;71.80;;;;;;4966112;28;89430;-74
2023/03/22 11:39:04;;;;;;;77.35;50.55;;;17.10;71.70;;;;;;4951434;28;90142;-76
2023/03/22 11:41:35;;;;;;;73.97;50.67;;;17.10;72.00;;;;;;4949621;28;90782;-76
2023/03/22 11:44:14;;;;;;;73.30;50.55;;;17.10;72.10;;;;;;4955793;28;91027;-77
2023/03/22 11:46:59;;;;;;;74.35;50.65;;;17.10;72.20;;;;;;4954047;28;93619;-76
2023/03/22 11:49:34;;;;;;;73.95;50.53;;;17.20;72.30;;;;;;4960184;28;89181;-74
2023/03/22 11:52:24;;;;;;;76.07;50.80;;;17.20;72.30;;;;;;4929201;28;91120;-74
2023/03/22 11:54:52;;;;;;;73.10;50.35;;;17.20;72.40;;;;;;4956039;28;89803;-74
2023/03/22 11:57:24;;;;;;;73.25;50.63;;;17.20;72.30;;;;;;4961778;28;90467;-75
2023/03/22 11:59:56;;;;;;;73.07;50.38;;;17.20;72.50;;;;;;4948188;28;91180;-72
2023/03/22 12:02:29;;;;;;;74.65;50.33;;;17.20;72.40;;;;;;4953991;28;89810;-74
2023/03/22 12:05:26;;;;;;;75.35;50.67;;;17.20;72.10;;;;;;4951128;28;91121;-72
2023/03/22 12:08:21;;;;;;;75.00;50.65;;;17.20;72.10;;;;;;4966097;28;90202;-73
2023/03/22 12:10:51;;;;;;;73.70;50.70;;;17.30;72.40;;;;;;4964247;28;93961;-76
2023/03/22 12:13:27;;;;;;;73.90;50.42;;;17.30;72.30;;;;;;4951537;28;90855;-74
2023/03/22 12:15:59;;;;;;;73.53;50.80;;;17.20;72.50;;;;;;4964544;28;90115;-75
2023/03/22 12:18:47;;;;;;;74.35;50.33;;;17.30;72.00;;;;;;4942905;28;91072;-75
2023/03/22 12:21:13;;;;;;;73.63;50.55;;;17.30;70.90;;;;;;4954071;28;90291;-76
2023/03/22 12:23:39;;;;;;;74.57;50.65;;;17.20;71.40;;;;;;4964610;28;96762;-74
2023/03/22 12:26:04;;;;;;;74.15;50.42;;;17.20;71.70;;;;;;4962751;28;91509;-72
2023/03/22 12:28:39;;;;;;;74.95;50.38;;;17.20;71.80;;;;;;4964909;28;93438;-75
2023/03/22 12:31:10;;;;;;;74.00;50.42;;;17.20;72.00;;;;;;4951354;28;90525;-74
2023/03/22 12:34:00;;;;;;;73.97;50.58;;;17.20;72.10;;;;;;4962499;28;89991;-77
2023/03/22 12:36:52;;;;;;;73.22;50.65;;;17.30;71.10;;;;;;4951384;28;91515;-74
2023/03/22 12:39:30;;;;;;;74.85;50.22;;;17.30;69.80;;;;;;4949778;28;93179;-73
2023/03/22 12:42:02;;;;;;;75.90;49.97;;;17.30;70.30;;;;;;4960595;28;92415;-73
2023/03/22 12:44:35;;;;;;;72.57;49.92;;;17.20;70.30;;;;;;4954983;28;90027;-74